createdAt,value
2019-01-28T00:00:03.573Z,785.4
2019-01-28T00:00:07.870Z,785.39
2019-01-28T00:00:12.063Z,785.47
2019-01-28T00:00:16.355Z,785.47
2019-01-28T00:00:20.644Z,785.43
2019-01-28T00:00:25.000Z,785.37
2019-01-28T00:00:29.288Z,785.42
2019-01-28T00:00:33.629Z,785.36
2019-01-28T00:00:37.943Z,785.38
2019-01-28T00:00:42.244Z,785.42
2019-01-28T00:00:46.587Z,785.43
2019-01-28T00:00:50.677Z,785.36
2019-01-28T00:00:54.965Z,785.39
2019-01-28T00:00:59.260Z,785.42
2019-01-28T00:01:03.454Z,785.42
2019-01-28T00:01:07.658Z,785.36
2019-01-28T00:01:11.938Z,785.42
2019-01-28T00:01:16.122Z,785.42
2019-01-28T00:01:20.309Z,785.42
2019-01-28T00:01:24.611Z,785.42
2019-01-28T00:01:28.902Z,785.41
2019-01-28T00:01:33.221Z,785.39
2019-01-28T00:01:37.411Z,785.39
2019-01-28T00:01:41.698Z,785.44
2019-01-28T00:01:45.990Z,785.45
2019-01-28T00:01:50.278Z,785.42
2019-01-28T00:01:54.474Z,785.44
2019-01-28T00:01:58.760Z,785.44
2019-01-28T00:02:03.100Z,785.46
2019-01-28T00:02:07.289Z,785.46
2019-01-28T00:02:11.575Z,785.48
2019-01-28T00:02:15.859Z,785.48
2019-01-28T00:02:20.147Z,785.49
2019-01-28T00:02:24.450Z,785.5
2019-01-28T00:02:28.733Z,785.5
2019-01-28T00:02:33.022Z,785.49
2019-01-28T00:02:37.307Z,785.47
2019-01-28T00:02:41.590Z,785.5
2019-01-28T00:02:45.876Z,785.48
2019-01-28T00:02:50.066Z,785.49
2019-01-28T00:02:54.385Z,785.51
2019-01-28T00:02:58.677Z,785.51
2019-01-28T00:03:02.977Z,785.49
2019-01-28T00:03:07.280Z,785.52
2019-01-28T00:03:11.570Z,785.48
2019-01-28T00:03:15.857Z,785.51
2019-01-28T00:03:20.146Z,785.45
2019-01-28T00:03:24.430Z,785.48
2019-01-28T00:03:28.718Z,785.47
2019-01-28T00:03:33.010Z,785.47
2019-01-28T00:03:37.292Z,785.46
2019-01-28T00:03:41.584Z,785.46
2019-01-28T00:03:45.869Z,785.49
2019-01-28T00:03:50.060Z,785.44
2019-01-28T00:03:54.350Z,785.42
2019-01-28T00:03:58.555Z,785.41
2019-01-28T00:04:02.942Z,785.46
2019-01-28T00:04:07.224Z,785.48
2019-01-28T00:04:11.524Z,785.5
2019-01-28T00:04:15.806Z,785.44
2019-01-28T00:04:20.087Z,785.48
2019-01-28T00:04:24.273Z,785.46
2019-01-28T00:04:28.576Z,785.42
2019-01-28T00:04:32.668Z,785.47
2019-01-28T00:04:36.896Z,785.46
2019-01-28T00:04:41.181Z,785.48
2019-01-28T00:04:45.472Z,785.49
2019-01-28T00:04:49.662Z,785.48
2019-01-28T00:04:53.946Z,785.5
2019-01-28T00:04:58.237Z,785.49
2019-01-28T00:05:02.528Z,785.48
2019-01-28T00:05:06.809Z,785.46
2019-01-28T00:05:10.995Z,785.45
2019-01-28T00:05:15.280Z,785.47
2019-01-28T00:05:21.323Z,785.48
2019-01-28T00:05:25.631Z,785.45
2019-01-28T00:05:29.926Z,785.45
2019-01-28T00:05:34.243Z,785.45
2019-01-28T00:05:38.525Z,785.42
2019-01-28T00:05:42.822Z,785.45
2019-01-28T00:05:47.105Z,785.42
2019-01-28T00:05:51.399Z,785.46
2019-01-28T00:05:55.680Z,785.41
2019-01-28T00:05:59.978Z,785.4
2019-01-28T00:06:04.264Z,785.44
2019-01-28T00:06:08.560Z,785.42
2019-01-28T00:06:12.844Z,785.42
2019-01-28T00:06:17.134Z,785.44
2019-01-28T00:06:21.430Z,785.38
2019-01-28T00:06:25.714Z,785.39
2019-01-28T00:06:29.999Z,785.4
2019-01-28T00:06:34.283Z,785.38
2019-01-28T00:06:38.476Z,785.35
2019-01-28T00:06:42.663Z,785.36
2019-01-28T00:06:46.963Z,785.37
2019-01-28T00:06:51.247Z,785.33
2019-01-28T00:06:55.529Z,785.32
2019-01-28T00:06:59.816Z,785.35
2019-01-28T00:07:04.099Z,785.34
2019-01-28T00:07:08.406Z,785.29
2019-01-28T00:07:12.691Z,785.29
2019-01-28T00:07:16.988Z,785.29
2019-01-28T00:07:21.176Z,785.26
2019-01-28T00:07:25.464Z,785.28
2019-01-28T00:07:29.823Z,785.25
2019-01-28T00:07:34.132Z,785.24
2019-01-28T00:07:38.416Z,785.25
2019-01-28T00:07:42.712Z,785.22
2019-01-28T00:07:46.809Z,785.25
2019-01-28T00:07:51.104Z,785.23
2019-01-28T00:07:55.289Z,785.23
2019-01-28T00:07:59.587Z,785.24
2019-01-28T00:08:03.785Z,785.23
2019-01-28T00:08:08.084Z,785.22
2019-01-28T00:08:12.376Z,785.21
2019-01-28T00:08:16.659Z,785.21
2019-01-28T00:08:20.946Z,785.19
2019-01-28T00:08:25.228Z,785.15
2019-01-28T00:08:29.531Z,785.19
2019-01-28T00:08:33.819Z,785.14
2019-01-28T00:08:38.007Z,785.18
2019-01-28T00:08:42.297Z,785.17
2019-01-28T00:08:46.588Z,785.1
2019-01-28T00:08:50.775Z,785.15
2019-01-28T00:08:54.968Z,785.13
2019-01-28T00:08:59.256Z,785.08
2019-01-28T00:09:03.555Z,785.15
2019-01-28T00:09:07.853Z,785.13
2019-01-28T00:09:12.050Z,785.11
2019-01-28T00:09:16.236Z,785.06
2019-01-28T00:09:20.546Z,785.08
2019-01-28T00:09:24.837Z,784.99
2019-01-28T00:09:29.191Z,784.95
2019-01-28T00:09:33.491Z,784.96
2019-01-28T00:09:37.780Z,784.99
2019-01-28T00:09:42.066Z,785.03
2019-01-28T00:09:46.355Z,785.03
2019-01-28T00:09:50.639Z,785.02
2019-01-28T00:09:54.928Z,785.04
2019-01-28T00:09:59.212Z,785.03
2019-01-28T00:10:03.503Z,785.03
2019-01-28T00:10:07.797Z,785.04
2019-01-28T00:10:11.984Z,784.99
2019-01-28T00:10:16.090Z,785.03
2019-01-28T00:10:20.382Z,785.01
2019-01-28T00:10:24.667Z,785.02
2019-01-28T00:10:28.996Z,785.01
2019-01-28T00:10:33.283Z,784.99
2019-01-28T00:10:37.569Z,785.02
2019-01-28T00:10:41.868Z,785.01
2019-01-28T00:10:46.153Z,784.99
2019-01-28T00:10:50.457Z,784.95
2019-01-28T00:10:54.742Z,784.99
2019-01-28T00:10:59.037Z,784.97
2019-01-28T00:11:03.484Z,784.96
2019-01-28T00:11:07.765Z,784.95
2019-01-28T00:11:12.049Z,784.98
2019-01-28T00:11:16.335Z,784.95
2019-01-28T00:11:20.620Z,784.96
2019-01-28T00:11:24.906Z,784.95
2019-01-28T00:11:29.203Z,784.95
2019-01-28T00:11:33.490Z,784.94
2019-01-28T00:11:37.774Z,784.94
2019-01-28T00:11:42.059Z,784.92
2019-01-28T00:11:46.244Z,784.97
2019-01-28T00:11:50.535Z,784.94
2019-01-28T00:11:54.817Z,784.96
2019-01-28T00:11:59.103Z,784.94
2019-01-28T00:12:03.392Z,784.95
2019-01-28T00:12:07.684Z,784.98
2019-01-28T00:12:11.874Z,784.91
2019-01-28T00:12:17.669Z,784.92
2019-01-28T00:12:21.970Z,784.93
2019-01-28T00:12:26.265Z,784.92
2019-01-28T00:12:30.557Z,784.87
2019-01-28T00:12:34.857Z,784.89
2019-01-28T00:12:39.042Z,784.83
2019-01-28T00:12:43.236Z,784.89
2019-01-28T00:12:47.537Z,784.88
2019-01-28T00:12:51.729Z,784.89
2019-01-28T00:12:55.929Z,784.84
2019-01-28T00:13:00.219Z,784.83
2019-01-28T00:13:04.567Z,784.82
2019-01-28T00:13:08.854Z,784.82
2019-01-28T00:13:13.147Z,784.84
2019-01-28T00:13:17.338Z,784.88
2019-01-28T00:13:21.534Z,784.84
2019-01-28T00:13:25.825Z,784.82
2019-01-28T00:13:30.010Z,784.82
2019-01-28T00:13:34.293Z,784.75
2019-01-28T00:13:38.581Z,784.76
2019-01-28T00:13:42.865Z,784.76
2019-01-28T00:13:47.152Z,784.77
2019-01-28T00:13:51.451Z,784.76
2019-01-28T00:13:55.733Z,784.73
2019-01-28T00:14:00.026Z,784.72
2019-01-28T00:14:04.322Z,784.71
2019-01-28T00:14:08.613Z,784.7
2019-01-28T00:14:12.902Z,784.64
2019-01-28T00:14:17.186Z,784.67
2019-01-28T00:14:21.470Z,784.66
2019-01-28T00:14:25.754Z,784.72
2019-01-28T00:14:30.056Z,784.67
2019-01-28T00:14:34.341Z,784.68
2019-01-28T00:14:38.631Z,784.67
2019-01-28T00:14:42.938Z,784.64
2019-01-28T00:14:47.124Z,784.68
2019-01-28T00:14:51.412Z,784.67
2019-01-28T00:14:55.694Z,784.66
2019-01-28T00:14:59.977Z,784.63
2019-01-28T00:15:04.275Z,784.63
2019-01-28T00:15:08.564Z,784.67
2019-01-28T00:15:12.866Z,784.64
2019-01-28T00:15:17.162Z,784.62
2019-01-28T00:15:21.233Z,784.61
2019-01-28T00:15:25.342Z,784.6
2019-01-28T00:15:29.441Z,784.59
2019-01-28T00:15:33.542Z,784.59
2019-01-28T00:15:37.835Z,784.61
2019-01-28T00:15:42.126Z,784.6
2019-01-28T00:15:46.137Z,784.61
2019-01-28T00:15:50.333Z,784.6
2019-01-28T00:15:54.428Z,784.59
2019-01-28T00:15:58.732Z,784.54
2019-01-28T00:16:03.036Z,784.57
2019-01-28T00:16:07.233Z,784.61
2019-01-28T00:16:11.474Z,784.62
2019-01-28T00:16:15.664Z,784.58
2019-01-28T00:16:19.854Z,784.62
2019-01-28T00:16:23.763Z,784.58
2019-01-28T00:16:28.007Z,784.6
2019-01-28T00:16:32.212Z,784.6
2019-01-28T00:16:36.408Z,784.57
2019-01-28T00:16:40.503Z,784.6
2019-01-28T00:16:44.753Z,784.62
2019-01-28T00:16:49.054Z,784.57
2019-01-28T00:16:53.342Z,784.6
2019-01-28T00:16:57.646Z,784.57
2019-01-28T00:17:01.840Z,784.62
2019-01-28T00:17:06.188Z,784.57
2019-01-28T00:17:10.473Z,784.57
2019-01-28T00:17:14.762Z,784.59
2019-01-28T00:17:19.054Z,784.6
2019-01-28T00:17:23.242Z,784.59
2019-01-28T00:17:27.460Z,784.57
2019-01-28T00:17:31.750Z,784.6
2019-01-28T00:17:37.625Z,784.61
2019-01-28T00:17:41.819Z,784.59
2019-01-28T00:17:46.108Z,784.6
2019-01-28T00:17:50.404Z,784.61
2019-01-28T00:17:54.691Z,784.62
2019-01-28T00:17:58.985Z,784.61
2019-01-28T00:18:03.473Z,784.57
2019-01-28T00:18:07.796Z,784.59
2019-01-28T00:18:12.081Z,784.59
2019-01-28T00:18:16.366Z,784.55
2019-01-28T00:18:20.658Z,784.56
2019-01-28T00:18:25.005Z,784.57
2019-01-28T00:18:29.295Z,784.57
2019-01-28T00:18:33.584Z,784.57
2019-01-28T00:18:37.875Z,784.52
2019-01-28T00:18:42.168Z,784.6
2019-01-28T00:18:46.361Z,784.51
2019-01-28T00:18:50.655Z,784.64
2019-01-28T00:18:54.942Z,784.6
2019-01-28T00:18:59.145Z,784.58
2019-01-28T00:19:03.487Z,784.61
2019-01-28T00:19:07.821Z,784.62
2019-01-28T00:19:12.106Z,784.61
2019-01-28T00:19:16.403Z,784.6
2019-01-28T00:19:20.706Z,784.58
2019-01-28T00:19:24.986Z,784.57
2019-01-28T00:19:29.276Z,784.6
2019-01-28T00:19:33.573Z,784.6
2019-01-28T00:19:37.868Z,784.6
2019-01-28T00:19:42.169Z,784.58
2019-01-28T00:19:46.453Z,784.64
2019-01-28T00:19:50.741Z,784.58
2019-01-28T00:19:55.042Z,784.63
2019-01-28T00:19:59.329Z,784.6
2019-01-28T00:20:03.617Z,784.64
2019-01-28T00:20:07.916Z,784.58
2019-01-28T00:20:12.216Z,784.65
2019-01-28T00:20:16.420Z,784.63
2019-01-28T00:20:20.764Z,784.63
2019-01-28T00:20:25.051Z,784.63
2019-01-28T00:20:29.341Z,784.61
2019-01-28T00:20:33.647Z,784.63
2019-01-28T00:20:37.942Z,784.61
2019-01-28T00:20:42.221Z,784.61
2019-01-28T00:20:46.503Z,784.58
2019-01-28T00:20:50.786Z,784.65
2019-01-28T00:20:55.073Z,784.62
2019-01-28T00:20:59.267Z,784.58
2019-01-28T00:21:03.551Z,784.59
2019-01-28T00:21:07.839Z,784.6
2019-01-28T00:21:12.024Z,784.51
2019-01-28T00:21:16.211Z,784.55
2019-01-28T00:21:20.556Z,784.56
2019-01-28T00:21:24.867Z,784.57
2019-01-28T00:21:29.167Z,784.57
2019-01-28T00:21:33.359Z,784.57
2019-01-28T00:21:37.679Z,784.52
2019-01-28T00:21:41.962Z,784.51
2019-01-28T00:21:46.248Z,784.5
2019-01-28T00:21:50.538Z,784.52
2019-01-28T00:21:54.835Z,784.5
2019-01-28T00:21:59.125Z,784.51
2019-01-28T00:22:03.419Z,784.47
2019-01-28T00:22:07.700Z,784.5
2019-01-28T00:22:11.886Z,784.51
2019-01-28T00:22:16.167Z,784.5
2019-01-28T00:22:20.449Z,784.48
2019-01-28T00:22:24.732Z,784.43
2019-01-28T00:22:29.021Z,784.42
2019-01-28T00:22:33.316Z,784.41
2019-01-28T00:22:37.602Z,784.38
2019-01-28T00:22:41.899Z,784.39
2019-01-28T00:22:46.189Z,784.36
2019-01-28T00:22:50.476Z,784.33
2019-01-28T00:22:54.764Z,784.34
2019-01-28T00:22:59.110Z,784.34
2019-01-28T00:23:03.397Z,784.34
2019-01-28T00:23:07.754Z,784.34
2019-01-28T00:23:12.066Z,784.32
2019-01-28T00:23:16.153Z,784.31
2019-01-28T00:23:20.341Z,784.31
2019-01-28T00:23:24.622Z,784.3
2019-01-28T00:23:28.908Z,784.32
2019-01-28T00:23:33.190Z,784.33
2019-01-28T00:23:37.476Z,784.3
2019-01-28T00:23:41.765Z,784.34
2019-01-28T00:23:46.050Z,784.36
2019-01-28T00:23:50.340Z,784.32
2019-01-28T00:23:54.525Z,784.31
2019-01-28T00:23:58.710Z,784.25
2019-01-28T00:24:03.004Z,784.29
2019-01-28T00:24:07.283Z,784.23
2019-01-28T00:24:11.487Z,784.24
2019-01-28T00:24:15.778Z,784.28
2019-01-28T00:24:20.076Z,784.22
2019-01-28T00:24:24.366Z,784.24
2019-01-28T00:24:28.461Z,784.25
2019-01-28T00:24:32.766Z,784.21
2019-01-28T00:24:37.054Z,784.2
2019-01-28T00:24:41.243Z,784.25
2019-01-28T00:24:45.535Z,784.21
2019-01-28T00:24:49.818Z,784.25
2019-01-28T00:24:54.102Z,784.2
2019-01-28T00:24:58.294Z,784.24
2019-01-28T00:25:02.575Z,784.19
2019-01-28T00:25:06.768Z,784.17
2019-01-28T00:25:11.073Z,784.21
2019-01-28T00:25:15.362Z,784.17
2019-01-28T00:25:19.666Z,784.23
2019-01-28T00:25:23.950Z,784.14
2019-01-28T00:25:28.043Z,784.14
2019-01-28T00:25:32.327Z,784.15
2019-01-28T00:25:36.616Z,784.12
2019-01-28T00:25:40.804Z,784.1
2019-01-28T00:25:45.088Z,784.11
2019-01-28T00:25:49.393Z,784.11
2019-01-28T00:25:53.583Z,784.08
2019-01-28T00:25:57.882Z,784.08
2019-01-28T00:26:02.222Z,784.09
2019-01-28T00:26:06.522Z,784.1
2019-01-28T00:26:10.821Z,784.12
2019-01-28T00:26:15.122Z,784.1
2019-01-28T00:26:19.313Z,784.1
2019-01-28T00:26:23.610Z,784.13
2019-01-28T00:26:27.906Z,784.08
2019-01-28T00:26:32.206Z,784.05
2019-01-28T00:26:36.495Z,784
2019-01-28T00:26:40.789Z,784.04
2019-01-28T00:26:45.075Z,784.03
2019-01-28T00:26:49.280Z,784.09
2019-01-28T00:26:53.469Z,784.12
2019-01-28T00:26:57.765Z,784.13
2019-01-28T00:27:01.943Z,784.09
2019-01-28T00:27:06.040Z,784.03
2019-01-28T00:27:10.224Z,784.02
2019-01-28T00:27:14.509Z,784.03
2019-01-28T00:27:18.798Z,784.04
2019-01-28T00:27:22.988Z,784.04
2019-01-28T00:27:27.271Z,783.99
2019-01-28T00:27:31.461Z,784.03
2019-01-28T00:27:35.747Z,784.01
2019-01-28T00:27:40.031Z,783.98
2019-01-28T00:27:44.314Z,784.02
2019-01-28T00:27:48.597Z,783.98
2019-01-28T00:27:52.784Z,783.98
2019-01-28T00:27:57.067Z,783.99
2019-01-28T00:28:01.354Z,783.95
2019-01-28T00:28:05.646Z,783.91
2019-01-28T00:28:09.931Z,783.93
2019-01-28T00:28:14.221Z,783.94
2019-01-28T00:28:18.528Z,783.91
2019-01-28T00:28:22.724Z,783.96
2019-01-28T00:28:27.012Z,783.94
2019-01-28T00:28:31.307Z,783.93
2019-01-28T00:28:37.303Z,783.88
2019-01-28T00:28:41.599Z,783.87
2019-01-28T00:28:45.889Z,783.86
2019-01-28T00:28:50.089Z,783.85
2019-01-28T00:28:54.380Z,783.83
2019-01-28T00:28:58.715Z,783.81
2019-01-28T00:29:02.906Z,783.81
2019-01-28T00:29:07.098Z,783.78
2019-01-28T00:29:11.390Z,783.78
2019-01-28T00:29:15.681Z,783.75
2019-01-28T00:29:19.786Z,783.77
2019-01-28T00:29:24.070Z,783.78
2019-01-28T00:29:28.267Z,783.75
2019-01-28T00:29:32.556Z,783.78
2019-01-28T00:29:36.852Z,783.76
2019-01-28T00:29:41.137Z,783.69
2019-01-28T00:29:45.419Z,783.66
2019-01-28T00:29:49.619Z,783.7
2019-01-28T00:29:53.912Z,783.66
2019-01-28T00:29:58.204Z,783.67
2019-01-28T00:30:02.554Z,783.66
2019-01-28T00:30:06.841Z,783.67
2019-01-28T00:30:11.157Z,783.66
2019-01-28T00:30:15.443Z,783.64
2019-01-28T00:30:19.743Z,783.62
2019-01-28T00:30:24.031Z,783.63
2019-01-28T00:30:28.317Z,783.56
2019-01-28T00:30:32.599Z,783.62
2019-01-28T00:30:36.895Z,783.61
2019-01-28T00:30:41.234Z,783.6
2019-01-28T00:30:45.522Z,783.62
2019-01-28T00:30:49.819Z,783.57
2019-01-28T00:30:54.106Z,783.56
2019-01-28T00:30:58.399Z,783.59
2019-01-28T00:31:02.842Z,783.59
2019-01-28T00:31:07.128Z,783.58
2019-01-28T00:31:11.321Z,783.6
2019-01-28T00:31:15.611Z,783.6
2019-01-28T00:31:19.905Z,783.59
2019-01-28T00:31:24.208Z,783.59
2019-01-28T00:31:28.400Z,783.57
2019-01-28T00:31:32.690Z,783.55
2019-01-28T00:31:37.009Z,783.58
2019-01-28T00:31:41.292Z,783.57
2019-01-28T00:31:45.502Z,783.56
2019-01-28T00:31:49.790Z,783.56
2019-01-28T00:31:54.075Z,783.54
2019-01-28T00:31:58.359Z,783.55
2019-01-28T00:32:02.549Z,783.54
2019-01-28T00:32:06.834Z,783.53
2019-01-28T00:32:11.118Z,783.56
2019-01-28T00:32:15.404Z,783.53
2019-01-28T00:32:19.699Z,783.56
2019-01-28T00:32:23.785Z,783.55
2019-01-28T00:32:28.133Z,783.53
2019-01-28T00:32:32.432Z,783.54
2019-01-28T00:32:36.623Z,783.53
2019-01-28T00:32:40.907Z,783.56
2019-01-28T00:32:45.194Z,783.57
2019-01-28T00:32:49.482Z,783.55
2019-01-28T00:32:53.785Z,783.59
2019-01-28T00:32:58.072Z,783.5
2019-01-28T00:33:02.358Z,783.54
2019-01-28T00:33:06.643Z,783.59
2019-01-28T00:33:10.827Z,783.57
2019-01-28T00:33:15.116Z,783.6
2019-01-28T00:33:19.405Z,783.6
2019-01-28T00:33:23.608Z,783.6
2019-01-28T00:33:27.915Z,783.59
2019-01-28T00:33:32.214Z,783.58
2019-01-28T00:33:36.515Z,783.61
2019-01-28T00:33:40.803Z,783.58
2019-01-28T00:33:44.994Z,783.56
2019-01-28T00:33:49.280Z,783.56
2019-01-28T00:33:53.481Z,783.6
2019-01-28T00:33:57.781Z,783.6
2019-01-28T00:34:02.066Z,783.58
2019-01-28T00:34:06.349Z,783.57
2019-01-28T00:34:10.635Z,783.53
2019-01-28T00:34:14.977Z,783.52
2019-01-28T00:34:19.265Z,783.53
2019-01-28T00:34:23.555Z,783.52
2019-01-28T00:34:27.842Z,783.51
2019-01-28T00:34:32.148Z,783.5
2019-01-28T00:34:36.435Z,783.5
2019-01-28T00:34:40.743Z,783.51
2019-01-28T00:34:45.032Z,783.49
2019-01-28T00:34:49.327Z,783.49
2019-01-28T00:34:53.620Z,783.49
2019-01-28T00:34:57.905Z,783.51
2019-01-28T00:35:02.213Z,783.5
2019-01-28T00:35:06.493Z,783.44
2019-01-28T00:35:10.785Z,783.42
2019-01-28T00:35:15.072Z,783.41
2019-01-28T00:35:19.358Z,783.45
2019-01-28T00:35:23.643Z,783.43
2019-01-28T00:35:27.926Z,783.43
2019-01-28T00:35:32.215Z,783.44
2019-01-28T00:35:36.503Z,783.46
2019-01-28T00:35:40.696Z,783.44
2019-01-28T00:35:44.976Z,783.48
2019-01-28T00:35:49.169Z,783.47
2019-01-28T00:35:53.453Z,783.43
2019-01-28T00:35:57.644Z,783.48
2019-01-28T00:36:01.939Z,783.43
2019-01-28T00:36:06.221Z,783.43
2019-01-28T00:36:10.522Z,783.44
2019-01-28T00:36:14.809Z,783.47
2019-01-28T00:36:19.091Z,783.42
2019-01-28T00:36:23.279Z,783.44
2019-01-28T00:36:27.566Z,783.44
2019-01-28T00:36:31.856Z,783.43
2019-01-28T00:36:37.978Z,783.37
2019-01-28T00:36:42.319Z,783.38
2019-01-28T00:36:46.520Z,783.43
2019-01-28T00:36:50.809Z,783.42
2019-01-28T00:36:55.000Z,783.39
2019-01-28T00:36:59.186Z,783.38
2019-01-28T00:37:03.478Z,783.42
2019-01-28T00:37:07.764Z,783.42
2019-01-28T00:37:12.109Z,783.41
2019-01-28T00:37:16.403Z,783.43
2019-01-28T00:37:20.742Z,783.41
2019-01-28T00:37:24.932Z,783.4
2019-01-28T00:37:29.120Z,783.36
2019-01-28T00:37:33.407Z,783.33
2019-01-28T00:37:37.617Z,783.36
2019-01-28T00:37:41.907Z,783.37
2019-01-28T00:37:46.197Z,783.33
2019-01-28T00:37:50.483Z,783.36
2019-01-28T00:37:54.784Z,783.36
2019-01-28T00:37:59.099Z,783.36
2019-01-28T00:38:03.383Z,783.38
2019-01-28T00:38:07.679Z,783.38
2019-01-28T00:38:11.965Z,783.36
2019-01-28T00:38:16.252Z,783.36
2019-01-28T00:38:20.545Z,783.39
2019-01-28T00:38:24.836Z,783.44
2019-01-28T00:38:29.131Z,783.39
2019-01-28T00:38:33.421Z,783.42
2019-01-28T00:38:37.612Z,783.41
2019-01-28T00:38:41.704Z,783.42
2019-01-28T00:38:46.007Z,783.35
2019-01-28T00:38:50.295Z,783.41
2019-01-28T00:38:54.583Z,783.41
2019-01-28T00:38:58.867Z,783.4
2019-01-28T00:39:03.411Z,783.4
2019-01-28T00:39:07.696Z,783.4
2019-01-28T00:39:11.887Z,783.42
2019-01-28T00:39:16.077Z,783.4
2019-01-28T00:39:20.413Z,783.42
2019-01-28T00:39:24.703Z,783.43
2019-01-28T00:39:29.016Z,783.42
2019-01-28T00:39:33.209Z,783.44
2019-01-28T00:39:37.494Z,783.43
2019-01-28T00:39:41.785Z,783.46
2019-01-28T00:39:46.074Z,783.47
2019-01-28T00:39:50.363Z,783.49
2019-01-28T00:39:54.647Z,783.52
2019-01-28T00:39:58.983Z,783.47
2019-01-28T00:40:03.269Z,783.52
2019-01-28T00:40:07.561Z,783.49
2019-01-28T00:40:11.849Z,783.54
2019-01-28T00:40:16.139Z,783.49
2019-01-28T00:40:20.423Z,783.48
2019-01-28T00:40:24.706Z,783.47
2019-01-28T00:40:28.897Z,783.46
2019-01-28T00:40:33.184Z,783.46
2019-01-28T00:40:37.466Z,783.43
2019-01-28T00:40:41.565Z,783.45
2019-01-28T00:40:45.861Z,783.47
2019-01-28T00:40:50.144Z,783.42
2019-01-28T00:40:54.429Z,783.4
2019-01-28T00:40:58.717Z,783.39
2019-01-28T00:41:03.107Z,783.41
2019-01-28T00:41:07.397Z,783.43
2019-01-28T00:41:11.484Z,783.42
2019-01-28T00:41:15.766Z,783.43
2019-01-28T00:41:19.852Z,783.39
2019-01-28T00:41:24.143Z,783.42
2019-01-28T00:41:28.427Z,783.37
2019-01-28T00:41:32.523Z,783.4
2019-01-28T00:41:36.808Z,783.39
2019-01-28T00:41:41.142Z,783.42
2019-01-28T00:41:45.429Z,783.38
2019-01-28T00:41:49.628Z,783.37
2019-01-28T00:41:53.915Z,783.37
2019-01-28T00:41:58.201Z,783.37
2019-01-28T00:42:02.501Z,783.37
2019-01-28T00:42:06.789Z,783.34
2019-01-28T00:42:11.076Z,783.36
2019-01-28T00:42:15.365Z,783.35
2019-01-28T00:42:19.655Z,783.35
2019-01-28T00:42:23.950Z,783.32
2019-01-28T00:42:28.236Z,783.31
2019-01-28T00:42:32.519Z,783.29
2019-01-28T00:42:36.707Z,783.26
2019-01-28T00:42:40.918Z,783.23
2019-01-28T00:42:45.203Z,783.21
2019-01-28T00:42:49.501Z,783.25
2019-01-28T00:42:53.795Z,783.21
2019-01-28T00:42:58.077Z,783.24
2019-01-28T00:43:02.359Z,783.2
2019-01-28T00:43:06.647Z,783.16
2019-01-28T00:43:10.935Z,783.22
2019-01-28T00:43:15.220Z,783.19
2019-01-28T00:43:19.406Z,783.22
2019-01-28T00:43:23.689Z,783.22
2019-01-28T00:43:27.988Z,783.15
2019-01-28T00:43:32.187Z,783.12
2019-01-28T00:43:36.477Z,783.16
2019-01-28T00:43:40.767Z,783.13
2019-01-28T00:43:45.060Z,783.16
2019-01-28T00:43:49.359Z,783.16
2019-01-28T00:43:53.547Z,783.15
2019-01-28T00:43:57.827Z,783.14
2019-01-28T00:44:02.017Z,783.16
2019-01-28T00:44:06.209Z,783.14
2019-01-28T00:44:10.493Z,783.14
2019-01-28T00:44:14.777Z,783.13
2019-01-28T00:44:18.970Z,783.13
2019-01-28T00:44:23.257Z,783.12
2019-01-28T00:44:27.552Z,783.11
2019-01-28T00:44:31.740Z,783.06
2019-01-28T00:44:36.038Z,783.11
2019-01-28T00:44:40.322Z,783.13
2019-01-28T00:44:44.609Z,783.1
2019-01-28T00:44:48.959Z,783.12
2019-01-28T00:44:53.252Z,783.11
2019-01-28T00:44:57.531Z,783.09
2019-01-28T00:45:01.813Z,783.08
2019-01-28T00:45:06.112Z,783.1
2019-01-28T00:45:10.297Z,783.08
2019-01-28T00:45:14.595Z,783.12
2019-01-28T00:45:18.881Z,783.08
2019-01-28T00:45:23.169Z,783.11
2019-01-28T00:45:27.454Z,783.12
2019-01-28T00:45:31.737Z,783.12
2019-01-28T00:45:36.020Z,783.08
2019-01-28T00:45:40.307Z,783.11
2019-01-28T00:45:44.589Z,783.06
2019-01-28T00:45:48.878Z,783
2019-01-28T00:45:53.089Z,783.04
2019-01-28T00:45:57.371Z,783.06
2019-01-28T00:46:01.659Z,783.05
2019-01-28T00:46:05.943Z,783.07
2019-01-28T00:46:10.239Z,783.11
2019-01-28T00:46:14.526Z,783.06
2019-01-28T00:46:18.813Z,783.06
2019-01-28T00:46:23.007Z,783.03
2019-01-28T00:46:27.194Z,783.03
2019-01-28T00:46:31.478Z,783.05
2019-01-28T00:46:35.759Z,783
2019-01-28T00:46:40.053Z,782.98
2019-01-28T00:46:44.345Z,782.92
2019-01-28T00:46:48.637Z,782.95
2019-01-28T00:46:52.826Z,782.95
2019-01-28T00:46:57.121Z,782.99
2019-01-28T00:47:01.409Z,782.96
2019-01-28T00:47:05.707Z,782.97
2019-01-28T00:47:09.898Z,782.94
2019-01-28T00:47:14.185Z,782.89
2019-01-28T00:47:18.471Z,782.89
2019-01-28T00:47:22.756Z,782.85
2019-01-28T00:47:27.039Z,782.83
2019-01-28T00:47:31.326Z,782.89
2019-01-28T00:47:35.610Z,782.89
2019-01-28T00:47:39.904Z,782.91
2019-01-28T00:47:44.185Z,782.9
2019-01-28T00:47:48.468Z,782.92
2019-01-28T00:47:52.765Z,782.88
2019-01-28T00:47:57.057Z,782.94
2019-01-28T00:48:01.339Z,782.95
2019-01-28T00:48:05.625Z,782.86
2019-01-28T00:48:09.911Z,782.88
2019-01-28T00:48:14.193Z,782.89
2019-01-28T00:48:20.260Z,782.92
2019-01-28T00:48:24.554Z,782.9
2019-01-28T00:48:28.858Z,782.87
2019-01-28T00:48:33.158Z,782.86
2019-01-28T00:48:37.444Z,782.82
2019-01-28T00:48:41.639Z,782.84
2019-01-28T00:48:45.733Z,782.89
2019-01-28T00:48:49.821Z,782.89
2019-01-28T00:48:54.106Z,782.92
2019-01-28T00:48:58.293Z,782.9
2019-01-28T00:49:02.582Z,782.93
2019-01-28T00:49:06.861Z,782.96
2019-01-28T00:49:11.051Z,782.92
2019-01-28T00:49:15.245Z,782.85
2019-01-28T00:49:19.537Z,782.93
2019-01-28T00:49:23.830Z,782.92
2019-01-28T00:49:28.122Z,782.95
2019-01-28T00:49:32.407Z,782.99
2019-01-28T00:49:36.691Z,782.99
2019-01-28T00:49:40.992Z,782.94
2019-01-28T00:49:45.183Z,782.89
2019-01-28T00:49:49.472Z,782.95
2019-01-28T00:49:53.754Z,782.92
2019-01-28T00:49:58.040Z,782.93
2019-01-28T00:50:02.480Z,782.93
2019-01-28T00:50:06.776Z,782.92
2019-01-28T00:50:11.061Z,782.94
2019-01-28T00:50:15.250Z,782.93
2019-01-28T00:50:19.534Z,782.98
2019-01-28T00:50:23.718Z,782.94
2019-01-28T00:50:28.004Z,782.94
2019-01-28T00:50:32.191Z,782.95
2019-01-28T00:50:36.378Z,782.96
2019-01-28T00:50:40.665Z,782.97
2019-01-28T00:50:44.955Z,782.94
2019-01-28T00:50:49.238Z,782.93
2019-01-28T00:50:53.425Z,782.94
2019-01-28T00:50:57.526Z,782.83
2019-01-28T00:51:01.622Z,782.88
2019-01-28T00:51:05.908Z,782.88
2019-01-28T00:51:10.095Z,782.88
2019-01-28T00:51:14.388Z,782.86
2019-01-28T00:51:18.594Z,782.85
2019-01-28T00:51:22.880Z,782.84
2019-01-28T00:51:27.168Z,782.8
2019-01-28T00:51:31.457Z,782.8
2019-01-28T00:51:35.740Z,782.84
2019-01-28T00:51:40.035Z,782.78
2019-01-28T00:51:44.322Z,782.83
2019-01-28T00:51:48.612Z,782.83
2019-01-28T00:51:52.907Z,782.87
2019-01-28T00:51:57.194Z,782.82
2019-01-28T00:52:01.478Z,782.81
2019-01-28T00:52:05.666Z,782.81
2019-01-28T00:52:09.951Z,782.8
2019-01-28T00:52:14.238Z,782.83
2019-01-28T00:52:18.428Z,782.8
2019-01-28T00:52:22.724Z,782.85
2019-01-28T00:52:27.010Z,782.81
2019-01-28T00:52:31.296Z,782.83
2019-01-28T00:52:35.576Z,782.86
2019-01-28T00:52:39.867Z,782.83
2019-01-28T00:52:44.065Z,782.84
2019-01-28T00:52:48.353Z,782.85
2019-01-28T00:52:52.636Z,782.87
2019-01-28T00:52:56.925Z,782.8
2019-01-28T00:53:01.114Z,782.85
2019-01-28T00:53:05.396Z,782.81
2019-01-28T00:53:09.712Z,782.78
2019-01-28T00:53:13.997Z,782.81
2019-01-28T00:53:18.188Z,782.8
2019-01-28T00:53:22.373Z,782.77
2019-01-28T00:53:26.652Z,782.81
2019-01-28T00:53:30.953Z,782.75
2019-01-28T00:53:35.158Z,782.79
2019-01-28T00:53:39.441Z,782.77